Time;durP1;ratioP1;P1;durP2;ratioP2;P2;SDS_P1;SDS_P2;PMS_P1;PMS_P2;Temp;Humidity;BMP_temperature;BMP_pressure;BME280_temperature;BME280_humidity;BME280_pressure;Samples;Min_cycle;Max_cycle;Signal;HPM_P1;HPM_P2
2023/05/28 00:02:02;;;;;;;;;;;13.40;99.90;;;;;;5128415;27;19912;-48
2023/05/28 00:04:27;;;;;;;;;;;13.40;99.90;;;;;;5133448;27;20318;-44
2023/05/28 00:06:55;;;;;;;;;;;13.30;99.90;;;;;;5134286;27;19919;-46
2023/05/28 00:09:21;;;;;;;;;;;13.30;99.90;;;;;;5134111;27;20281;-45
2023/05/28 00:11:46;;;;;;;;;;;13.30;99.90;;;;;;5133793;27;20370;-44
2023/05/28 00:14:12;;;;;;;;;;;13.20;99.90;;;;;;5133232;27;19915;-44
2023/05/28 00:16:37;;;;;;;;;;;13.20;99.90;;;;;;5126644;27;20338;-46
2023/05/28 00:19:03;;;;;;;;;;;13.20;99.90;;;;;;5120080;27;20390;-46
2023/05/28 00:21:32;;;;;;;;;;;13.20;99.90;;;;;;5132969;27;20316;-44
2023/05/28 00:23:58;;;;;;;;;;;13.20;99.90;;;;;;5135099;27;19914;-44
2023/05/28 00:26:25;;;;;;;;;;;13.10;99.90;;;;;;5133027;27;19911;-45
2023/05/28 00:28:50;;;;;;;;;;;13.10;99.90;;;;;;5133514;27;19915;-46
2023/05/28 00:31:16;;;;;;;;;;;13.10;99.90;;;;;;5129821;27;20323;-45
2023/05/28 00:33:43;;;;;;;;;;;13.00;99.90;;;;;;5134440;27;19993;-45
2023/05/28 00:36:10;;;;;;;;;;;13.00;99.90;;;;;;5132635;27;19920;-45
2023/05/28 00:38:36;;;;;;;;;;;12.90;99.90;;;;;;5134576;27;19995;-44
2023/05/28 00:41:01;;;;;;;;;;;12.90;99.90;;;;;;5132495;27;19972;-44
2023/05/28 00:43:27;;;;;;;;;;;12.90;99.90;;;;;;5133603;27;19907;-44
2023/05/28 00:45:55;;;;;;;;;;;12.80;99.90;;;;;;5132226;27;19916;-44
2023/05/28 00:48:21;;;;;;;;;;;12.80;99.90;;;;;;5133128;27;19919;-46
2023/05/28 00:50:47;;;;;;;;;;;12.80;99.90;;;;;;5127863;27;19918;-46
2023/05/28 00:53:13;;;;;;;;;;;12.80;99.90;;;;;;5113885;28;19914;-50
2023/05/28 00:55:38;;;;;;;;;;;12.70;99.90;;;;;;5119084;27;19912;-44
2023/05/28 00:58:05;;;;;;;;;;;12.70;99.90;;;;;;5132336;27;19912;-45
2023/05/28 01:00:32;;;;;;;;;;;12.70;99.90;;;;;;5131612;27;19912;-45
2023/05/28 01:02:58;;;;;;;;;;;12.60;99.90;;;;;;5133240;27;20377;-45
2023/05/28 01:05:24;;;;;;;;;;;12.60;99.90;;;;;;5128290;27;19911;-44
2023/05/28 01:07:50;;;;;;;;;;;12.60;99.90;;;;;;5133612;27;20310;-46
2023/05/28 01:10:16;;;;;;;;;;;12.50;99.90;;;;;;5133735;27;19907;-47
2023/05/28 01:12:42;;;;;;;;;;;12.50;99.90;;;;;;5132396;27;20255;-45
2023/05/28 01:15:08;;;;;;;;;;;12.50;99.90;;;;;;5131536;27;19963;-45
2023/05/28 01:17:34;;;;;;;;;;;12.40;99.90;;;;;;5131055;27;19962;-46
2023/05/28 01:20:10;;;;;;;;;;;12.40;99.90;;;;;;5128435;27;20006;-50
2023/05/28 01:22:40;;;;;;;;;;;12.40;99.90;;;;;;5129816;27;19968;-45
2023/05/28 01:25:09;;;;;;;;;;;12.40;99.90;;;;;;5131094;27;20061;-45
2023/05/28 01:27:41;;;;;;;;;;;12.40;99.90;;;;;;5128252;27;19926;-47
2023/05/28 01:30:09;;;;;;;;;;;12.50;99.90;;;;;;5132353;27;19916;-49
2023/05/28 01:32:35;;;;;;;;;;;12.40;99.90;;;;;;5127631;27;20419;-46
2023/05/28 01:35:01;;;;;;;;;;;12.50;99.90;;;;;;5130298;27;20370;-47
2023/05/28 01:37:27;;;;;;;;;;;12.50;99.90;;;;;;5132203;27;19923;-45
2023/05/28 01:39:53;;;;;;;;;;;12.50;99.90;;;;;;5132842;27;19912;-47
2023/05/28 01:42:18;;;;;;;;;;;12.50;99.90;;;;;;5131268;27;19908;-47
2023/05/28 01:44:45;;;;;;;;;;;12.50;99.90;;;;;;5133446;27;19919;-49
2023/05/28 01:47:12;;;;;;;;;;;12.40;99.90;;;;;;5130987;27;20001;-44
2023/05/28 01:49:38;;;;;;;;;;;12.50;99.90;;;;;;5121851;27;20370;-48
2023/05/28 01:52:04;;;;;;;;;;;12.40;99.90;;;;;;5132282;27;20388;-45
2023/05/28 01:54:30;;;;;;;;;;;12.50;99.90;;;;;;5132325;27;19908;-48
2023/05/28 01:56:55;;;;;;;;;;;12.50;99.90;;;;;;5131724;27;19908;-45
2023/05/28 01:59:21;;;;;;;;;;;12.50;99.90;;;;;;5132026;27;19911;-46
2023/05/28 02:01:47;;;;;;;;;;;12.50;99.90;;;;;;5129732;27;20006;-45
2023/05/28 02:04:12;;;;;;;;;;;12.50;99.90;;;;;;5132280;27;20266;-44
2023/05/28 02:06:40;;;;;;;;;;;12.50;99.90;;;;;;5132024;27;19912;-45
2023/05/28 02:09:06;;;;;;;;;;;12.50;99.90;;;;;;5131793;27;19919;-47
2023/05/28 02:11:31;;;;;;;;;;;12.50;99.90;;;;;;5131081;27;20312;-46
2023/05/28 02:13:57;;;;;;;;;;;12.50;99.90;;;;;;5132072;27;19996;-47
2023/05/28 02:16:23;;;;;;;;;;;12.50;99.90;;;;;;5130634;27;20411;-47
2023/05/28 02:18:50;;;;;;;;;;;12.60;99.90;;;;;;5131945;27;19912;-46
2023/05/28 02:21:16;;;;;;;;;;;12.50;99.90;;;;;;5130381;27;19912;-45
2023/05/28 02:23:43;;;;;;;;;;;12.60;99.90;;;;;;5132883;27;19995;-46
2023/05/28 02:26:08;;;;;;;;;;;12.60;99.90;;;;;;5132818;27;19908;-49
2023/05/28 02:28:33;;;;;;;;;;;12.60;99.90;;;;;;5124636;27;20400;-46
2023/05/28 02:30:59;;;;;;;;;;;12.60;99.90;;;;;;5116165;28;19920;-45
2023/05/28 02:33:25;;;;;;;;;;;12.60;99.90;;;;;;5118778;28;19918;-45
2023/05/28 02:35:50;;;;;;;;;;;12.60;99.90;;;;;;5119832;28;19959;-46
2023/05/28 02:38:16;;;;;;;;;;;12.60;99.90;;;;;;5128844;28;20362;-49
2023/05/28 02:40:41;;;;;;;;;;;12.50;99.90;;;;;;5132025;28;19939;-45
2023/05/28 02:43:07;;;;;;;;;;;12.50;99.90;;;;;;5130226;28;19911;-45
2023/05/28 02:45:32;;;;;;;;;;;12.50;99.90;;;;;;5130464;28;20002;-46
2023/05/28 02:47:58;;;;;;;;;;;12.50;99.90;;;;;;5130206;28;19919;-46
2023/05/28 02:50:23;;;;;;;;;;;12.50;99.90;;;;;;5131652;28;20381;-44
2023/05/28 02:52:49;;;;;;;;;;;12.50;99.90;;;;;;5125697;28;19918;-45
2023/05/28 02:55:14;;;;;;;;;;;12.50;99.90;;;;;;5132300;28;19911;-47
2023/05/28 02:57:40;;;;;;;;;;;12.60;99.90;;;;;;5129563;28;20002;-46
2023/05/28 03:00:09;;;;;;;;;;;12.60;99.90;;;;;;5131833;28;19907;-47
2023/05/28 03:02:34;;;;;;;;;;;12.60;99.90;;;;;;5130017;28;19957;-47
2023/05/28 03:05:02;;;;;;;;;;;12.50;99.90;;;;;;5131838;28;19943;-45
2023/05/28 03:07:30;;;;;;;;;;;12.60;99.90;;;;;;5130946;28;19966;-45
2023/05/28 03:09:56;;;;;;;;;;;12.50;99.90;;;;;;5132347;28;19916;-45
2023/05/28 03:12:22;;;;;;;;;;;12.60;99.90;;;;;;5129080;27;19911;-49
2023/05/28 03:14:47;;;;;;;;;;;12.60;99.90;;;;;;5133997;27;19918;-46
2023/05/28 03:17:12;;;;;;;;;;;12.50;99.90;;;;;;5131726;27;20266;-47
2023/05/28 03:19:38;;;;;;;;;;;12.50;99.90;;;;;;5134371;27;19918;-48
2023/05/28 03:22:03;;;;;;;;;;;12.50;99.90;;;;;;5133404;27;19939;-45
2023/05/28 03:24:30;;;;;;;;;;;12.50;99.90;;;;;;5135084;27;19919;-45
2023/05/28 03:26:57;;;;;;;;;;;12.50;99.90;;;;;;5134778;27;19912;-45
2023/05/28 03:29:22;;;;;;;;;;;12.50;99.90;;;;;;5134950;27;19926;-44
2023/05/28 03:31:48;;;;;;;;;;;12.50;99.90;;;;;;5131442;27;20121;-44
2023/05/28 03:34:13;;;;;;;;;;;12.50;99.90;;;;;;5134156;27;19972;-51
2023/05/28 03:36:42;;;;;;;;;;;12.50;99.90;;;;;;5132473;27;20366;-44
2023/05/28 03:39:08;;;;;;;;;;;12.50;99.90;;;;;;5125310;27;19912;-44
2023/05/28 03:41:34;;;;;;;;;;;12.50;99.90;;;;;;5132140;27;20346;-45
2023/05/28 03:44:01;;;;;;;;;;;12.50;99.90;;;;;;5129969;27;20205;-46
2023/05/28 03:46:26;;;;;;;;;;;12.50;99.90;;;;;;5125768;27;20445;-45
2023/05/28 03:48:52;;;;;;;;;;;12.50;99.90;;;;;;5135676;27;19924;-45
2023/05/28 03:51:17;;;;;;;;;;;12.50;99.90;;;;;;5134612;27;19912;-46
2023/05/28 03:53:43;;;;;;;;;;;12.50;99.90;;;;;;5133964;27;19921;-46
2023/05/28 03:56:08;;;;;;;;;;;12.50;99.90;;;;;;5132617;27;19911;-45
2023/05/28 03:58:34;;;;;;;;;;;12.50;99.90;;;;;;5133347;27;19969;-45
2023/05/28 04:00:59;;;;;;;;;;;12.50;99.90;;;;;;5132017;27;20342;-46
2023/05/28 04:03:25;;;;;;;;;;;12.50;99.90;;;;;;5135249;27;19953;-47
2023/05/28 04:05:51;;;;;;;;;;;12.50;99.90;;;;;;5134235;27;20421;-46
2023/05/28 04:08:17;;;;;;;;;;;12.50;99.90;;;;;;5124549;27;19960;-45
2023/05/28 04:10:42;;;;;;;;;;;12.50;99.90;;;;;;5130034;27;19915;-46
2023/05/28 04:13:08;;;;;;;;;;;12.50;99.90;;;;;;5134571;27;19990;-45
2023/05/28 04:15:33;;;;;;;;;;;12.50;99.90;;;;;;5131016;27;19915;-49
2023/05/28 04:17:59;;;;;;;;;;;12.50;99.90;;;;;;5133147;27;19921;-45
2023/05/28 04:20:24;;;;;;;;;;;12.50;99.90;;;;;;5134031;27;19907;-44
2023/05/28 04:22:50;;;;;;;;;;;12.50;99.90;;;;;;5133821;27;19912;-50
2023/05/28 04:25:18;;;;;;;;;;;12.50;99.90;;;;;;5134478;27;20479;-44
2023/05/28 04:27:44;;;;;;;;;;;12.50;99.90;;;;;;5131118;27;19916;-45
2023/05/28 04:30:10;;;;;;;;;;;12.50;99.90;;;;;;5131874;27;19923;-45
2023/05/28 04:32:38;;;;;;;;;;;12.50;99.90;;;;;;5129464;27;20014;-45
2023/05/28 04:35:10;;;;;;;;;;;12.50;99.90;;;;;;5127625;27;19947;-50
2023/05/28 04:37:39;;;;;;;;;;;12.40;99.90;;;;;;5129146;27;19946;-44
2023/05/28 04:40:05;;;;;;;;;;;12.40;99.90;;;;;;5134670;27;19911;-46
2023/05/28 04:42:31;;;;;;;;;;;12.40;99.90;;;;;;5133693;27;19908;-47
2023/05/28 04:44:58;;;;;;;;;;;12.40;99.90;;;;;;5131895;27;19930;-46
2023/05/28 04:47:23;;;;;;;;;;;12.40;99.90;;;;;;5128466;27;19911;-46
2023/05/28 04:49:49;;;;;;;;;;;12.40;99.90;;;;;;5130160;27;20335;-48
2023/05/28 04:52:16;;;;;;;;;;;12.40;99.90;;;;;;5129606;27;19916;-45
2023/05/28 04:54:41;;;;;;;;;;;12.40;99.90;;;;;;5131092;27;19915;-45
2023/05/28 04:57:07;;;;;;;;;;;12.50;99.90;;;;;;5131732;27;20362;-44
2023/05/28 04:59:34;;;;;;;;;;;12.50;99.90;;;;;;5132552;27;19964;-45
2023/05/28 05:01:59;;;;;;;;;;;12.40;99.90;;;;;;5117417;27;19947;-45
2023/05/28 05:04:25;;;;;;;;;;;12.50;99.90;;;;;;5115367;27;19951;-44
2023/05/28 05:06:50;;;;;;;;;;;12.60;99.90;;;;;;5131815;27;20327;-44
2023/05/28 05:09:16;;;;;;;;;;;12.50;99.90;;;;;;5133036;27;19972;-46
2023/05/28 05:11:41;;;;;;;;;;;12.60;99.90;;;;;;5133443;27;19947;-45
2023/05/28 05:14:07;;;;;;;;;;;12.60;99.90;;;;;;5131113;27;20429;-46
2023/05/28 05:16:32;;;;;;;;;;;12.70;99.90;;;;;;5130253;27;19915;-46
2023/05/28 05:18:58;;;;;;;;;;;12.70;99.90;;;;;;5133306;27;19986;-45
2023/05/28 05:21:24;;;;;;;;;;;12.80;99.90;;;;;;5132343;27;20010;-45
2023/05/28 05:23:49;;;;;;;;;;;12.80;99.90;;;;;;5133268;27;20002;-44
2023/05/28 05:26:17;;;;;;;;;;;12.80;99.90;;;;;;5130611;27;19907;-45
2023/05/28 05:28:42;;;;;;;;;;;12.90;99.90;;;;;;5132039;27;20014;-43
2023/05/28 05:31:08;;;;;;;;;;;12.90;99.90;;;;;;5127888;27;20422;-44
2023/05/28 05:33:34;;;;;;;;;;;13.00;99.90;;;;;;5132874;27;20385;-45
2023/05/28 05:36:00;;;;;;;;;;;13.00;99.90;;;;;;5129390;27;19923;-43
2023/05/28 05:38:26;;;;;;;;;;;13.10;99.90;;;;;;5130121;27;20426;-45
2023/05/28 05:40:51;;;;;;;;;;;13.10;99.90;;;;;;5132863;27;20361;-44
2023/05/28 05:43:17;;;;;;;;;;;13.30;99.90;;;;;;5128986;27;19919;-45
2023/05/28 05:45:42;;;;;;;;;;;13.30;99.90;;;;;;5121303;27;19916;-47
2023/05/28 05:48:07;;;;;;;;;;;13.40;99.90;;;;;;5133391;27;19986;-44
2023/05/28 05:50:46;;;;;;;;;;;13.50;99.90;;;;;;5132865;27;19915;-45
2023/05/28 05:53:11;;;;;;;;;;;13.60;99.90;;;;;;5132584;27;19908;-44
2023/05/28 05:55:37;;;;;;;;;;;13.60;99.90;;;;;;5128139;27;19919;-45
2023/05/28 05:58:03;;;;;;;;;;;13.70;99.90;;;;;;5130546;27;19911;-47
2023/05/28 06:00:29;;;;;;;;;;;13.80;99.90;;;;;;5126659;27;20259;-46
2023/05/28 06:02:54;;;;;;;;;;;13.90;99.90;;;;;;5118879;27;19918;-49
2023/05/28 06:05:20;;;;;;;;;;;14.00;99.90;;;;;;5119210;27;19920;-45
2023/05/28 06:07:46;;;;;;;;;;;14.00;99.90;;;;;;5123783;27;20012;-44
2023/05/28 06:10:12;;;;;;;;;;;14.10;99.90;;;;;;5119315;27;19943;-44
2023/05/28 06:12:38;;;;;;;;;;;14.20;99.90;;;;;;5115723;27;19912;-45
2023/05/28 06:15:04;;;;;;;;;;;14.30;99.90;;;;;;5124117;27;19998;-43
2023/05/28 06:17:30;;;;;;;;;;;14.30;99.90;;;;;;5122764;27;20379;-45
2023/05/28 06:19:55;;;;;;;;;;;14.40;99.90;;;;;;5130697;27;19912;-45
2023/05/28 06:22:21;;;;;;;;;;;14.40;99.90;;;;;;5128784;27;19918;-45
2023/05/28 06:24:49;;;;;;;;;;;14.40;99.90;;;;;;5125174;27;19908;-46
2023/05/28 06:27:14;;;;;;;;;;;14.50;99.90;;;;;;5127058;27;19916;-45
2023/05/28 06:29:41;;;;;;;;;;;14.50;99.90;;;;;;5132756;27;19972;-45
2023/05/28 06:32:07;;;;;;;;;;;14.50;99.90;;;;;;5126108;27;19911;-48
2023/05/28 06:34:32;;;;;;;;;;;14.50;99.90;;;;;;5129603;28;19938;-48
2023/05/28 06:36:58;;;;;;;;;;;14.50;99.90;;;;;;5130908;27;20345;-45
2023/05/28 06:39:23;;;;;;;;;;;14.60;99.90;;;;;;5132042;28;19907;-44
2023/05/28 06:41:48;;;;;;;;;;;14.60;99.90;;;;;;5132123;28;20421;-45
2023/05/28 06:44:14;;;;;;;;;;;14.60;99.90;;;;;;5131587;27;19922;-45
2023/05/28 06:46:39;;;;;;;;;;;14.60;99.90;;;;;;5126547;27;20374;-45
2023/05/28 06:49:05;;;;;;;;;;;14.70;99.90;;;;;;5132902;27;19919;-46
2023/05/28 06:51:31;;;;;;;;;;;14.80;99.90;;;;;;5135784;27;19963;-46
2023/05/28 06:53:56;;;;;;;;;;;14.80;99.90;;;;;;5136648;27;19907;-46
2023/05/28 06:56:22;;;;;;;;;;;14.90;99.90;;;;;;5134565;27;19926;-44
2023/05/28 06:58:49;;;;;;;;;;;14.90;99.90;;;;;;5134588;27;19912;-45
2023/05/28 07:01:14;;;;;;;;;;;15.00;99.90;;;;;;5133002;27;19915;-46
2023/05/28 07:03:40;;;;;;;;;;;15.00;99.90;;;;;;5134211;27;20277;-46
2023/05/28 07:06:05;;;;;;;;;;;15.10;99.90;;;;;;5136698;27;19960;-46
2023/05/28 07:08:31;;;;;;;;;;;15.10;99.90;;;;;;5129914;27;20014;-45
2023/05/28 07:10:56;;;;;;;;;;;15.10;99.90;;;;;;5130919;27;19925;-48
2023/05/28 07:13:22;;;;;;;;;;;15.20;99.90;;;;;;5123202;27;19912;-44
2023/05/28 07:15:47;;;;;;;;;;;15.20;99.90;;;;;;5128540;27;19911;-44
2023/05/28 07:18:13;;;;;;;;;;;15.30;99.90;;;;;;5124837;27;19911;-48
2023/05/28 07:20:39;;;;;;;;;;;15.40;99.90;;;;;;5136410;27;19947;-45
2023/05/28 07:23:04;;;;;;;;;;;15.40;99.90;;;;;;5135056;27;20435;-45
2023/05/28 07:25:30;;;;;;;;;;;15.50;99.90;;;;;;5126208;27;19911;-45
2023/05/28 07:27:55;;;;;;;;;;;15.60;99.90;;;;;;5120391;27;20358;-44
2023/05/28 07:30:21;;;;;;;;;;;15.60;99.90;;;;;;5131814;27;19923;-44
2023/05/28 07:32:46;;;;;;;;;;;15.70;99.90;;;;;;5131231;27;19960;-45
2023/05/28 07:35:12;;;;;;;;;;;15.80;99.90;;;;;;5125709;27;19911;-45
2023/05/28 07:37:38;;;;;;;;;;;15.90;99.90;;;;;;5113719;27;19926;-48
2023/05/28 07:40:05;;;;;;;;;;;16.00;99.90;;;;;;5107019;28;19912;-47
2023/05/28 07:42:30;;;;;;;;;;;16.00;99.90;;;;;;5104909;27;19969;-47
2023/05/28 07:44:56;;;;;;;;;;;16.10;99.90;;;;;;5104697;28;19927;-44
2023/05/28 07:47:21;;;;;;;;;;;16.10;99.90;;;;;;5107895;27;19918;-44
2023/05/28 07:49:47;;;;;;;;;;;16.10;99.90;;;;;;5125033;27;19919;-45
2023/05/28 07:52:13;;;;;;;;;;;16.10;99.90;;;;;;5113842;28;19915;-45
2023/05/28 07:54:41;;;;;;;;;;;16.20;99.90;;;;;;5115084;28;19915;-45
2023/05/28 07:57:07;;;;;;;;;;;16.30;99.90;;;;;;5111445;28;19919;-46
2023/05/28 07:59:33;;;;;;;;;;;16.30;99.90;;;;;;5110322;28;19916;-46
2023/05/28 08:01:58;;;;;;;;;;;16.30;99.90;;;;;;5114902;28;20010;-45
2023/05/28 08:04:23;;;;;;;;;;;16.40;99.90;;;;;;5101891;28;19915;-45
2023/05/28 08:06:49;;;;;;;;;;;16.40;99.90;;;;;;5105699;28;20347;-47
2023/05/28 08:09:17;;;;;;;;;;;16.50;99.90;;;;;;5100173;28;19924;-48
2023/05/28 08:11:43;;;;;;;;;;;16.60;99.90;;;;;;5105139;28;20356;-49
2023/05/28 08:14:09;;;;;;;;;;;16.70;99.90;;;;;;5078724;28;19915;-44
2023/05/28 08:16:35;;;;;;;;;;;16.80;99.90;;;;;;5079865;28;20347;-44
2023/05/28 08:19:00;;;;;;;;;;;16.90;99.90;;;;;;5095307;28;19924;-47
2023/05/28 08:21:26;;;;;;;;;;;16.90;99.90;;;;;;5088123;28;20370;-49
2023/05/28 08:23:54;;;;;;;;;;;17.00;99.40;;;;;;5067531;28;20263;-45
2023/05/28 08:26:20;;;;;;;;;;;17.10;99.40;;;;;;5093076;28;19916;-45
2023/05/28 08:28:46;;;;;;;;;;;17.20;99.50;;;;;;5107336;28;19927;-48
2023/05/28 08:31:11;;;;;;;;;;;17.30;99.90;;;;;;5112406;28;19915;-45
2023/05/28 08:33:36;;;;;;;;;;;17.40;99.50;;;;;;5109409;28;19911;-46
2023/05/28 08:36:02;;;;;;;;;;;17.40;98.40;;;;;;5108998;28;19919;-49
2023/05/28 08:38:28;;;;;;;;;;;17.50;97.60;;;;;;5126350;27;20370;-46
2023/05/28 08:40:54;;;;;;;;;;;17.60;98.60;;;;;;5121459;27;20441;-46
2023/05/28 08:43:20;;;;;;;;;;;17.70;99.10;;;;;;5130148;27;20002;-45
2023/05/28 08:45:45;;;;;;;;;;;17.70;98.30;;;;;;5119925;27;19916;-47
2023/05/28 08:48:11;;;;;;;;;;;17.80;98.60;;;;;;5119005;27;19993;-45
2023/05/28 08:50:38;;;;;;;;;;;17.80;98.30;;;;;;5131048;27;19986;-48
2023/05/28 08:53:07;;;;;;;;;;;18.00;97.90;;;;;;5130340;27;19920;-48
2023/05/28 08:55:33;;;;;;;;;;;18.10;98.50;;;;;;5131334;27;19912;-44
2023/05/28 08:57:58;;;;;;;;;;;18.20;97.30;;;;;;5130919;27;20010;-45
2023/05/28 09:00:24;;;;;;;;;;;18.20;96.70;;;;;;5131164;27;19956;-45
2023/05/28 09:02:50;;;;;;;;;;;18.20;96.40;;;;;;5126565;27;19912;-45
2023/05/28 09:05:15;;;;;;;;;;;18.30;96.60;;;;;;5129128;27;19934;-45
2023/05/28 09:07:41;;;;;;;;;;;18.30;96.00;;;;;;5131199;27;19999;-45
2023/05/28 09:10:06;;;;;;;;;;;18.30;95.60;;;;;;5119948;27;20063;-50
2023/05/28 09:12:32;;;;;;;;;;;18.50;95.70;;;;;;5129941;27;20378;-47
2023/05/28 09:14:58;;;;;;;;;;;18.50;93.90;;;;;;5126993;27;20355;-45
2023/05/28 09:17:33;;;;;;;;;;;18.60;95.10;;;;;;5122552;27;20357;-46
2023/05/28 09:19:59;;;;;;;;;;;18.70;94.80;;;;;;5112621;27;19961;-48
2023/05/28 09:22:26;;;;;;;;;;;18.80;95.70;;;;;;5118296;27;19915;-46
2023/05/28 09:24:53;;;;;;;;;;;18.90;95.00;;;;;;5120796;27;19918;-47
2023/05/28 09:27:19;;;;;;;;;;;19.00;94.50;;;;;;5126425;27;19907;-46
2023/05/28 09:29:46;;;;;;;;;;;19.00;93.90;;;;;;5115409;27;20267;-47
2023/05/28 09:32:16;;;;;;;;;;;19.10;93.30;;;;;;5127087;27;19911;-49
2023/05/28 09:34:45;;;;;;;;;;;19.20;91.80;;;;;;5124319;27;20358;-46
2023/05/28 09:37:10;;;;;;;;;;;19.20;92.60;;;;;;5131857;27;20117;-44
2023/05/28 09:39:35;;;;;;;;;;;19.30;93.10;;;;;;5125499;27;20297;-46
2023/05/28 09:42:09;;;;;;;;;;;19.40;93.10;;;;;;5132066;27;19919;-45
2023/05/28 09:44:35;;;;;;;;;;;19.40;93.00;;;;;;5127211;27;19919;-44
2023/05/28 09:47:00;;;;;;;;;;;19.50;91.40;;;;;;5124678;27;19919;-46
2023/05/28 09:49:28;;;;;;;;;;;19.60;90.30;;;;;;5123611;27;19920;-46
2023/05/28 09:51:56;;;;;;;;;;;19.60;90.40;;;;;;5118744;27;20035;-44
2023/05/28 09:54:24;;;;;;;;;;;19.70;89.50;;;;;;5114938;27;20378;-46
2023/05/28 09:56:51;;;;;;;;;;;19.80;86.80;;;;;;5114545;27;19923;-44
2023/05/28 09:59:17;;;;;;;;;;;19.90;87.70;;;;;;5119411;27;19911;-47
2023/05/28 10:01:55;;;;;;;;;;;20.00;88.80;;;;;;5132377;27;19961;-45
2023/05/28 10:04:23;;;;;;;;;;;20.00;90.10;;;;;;5132964;27;19918;-47
2023/05/28 10:06:49;;;;;;;;;;;20.10;86.70;;;;;;5132636;27;19950;-46
2023/05/28 10:09:15;;;;;;;;;;;20.10;82.80;;;;;;5131484;27;19930;-44
2023/05/28 10:11:50;;;;;;;;;;;20.10;83.00;;;;;;5115436;27;19911;-46
2023/05/28 10:14:16;;;;;;;;;;;20.20;84.70;;;;;;5117040;27;19916;-46
2023/05/28 10:16:41;;;;;;;;;;;20.30;83.80;;;;;;5133138;27;19922;-45
2023/05/28 10:19:07;;;;;;;;;;;20.30;82.50;;;;;;5131477;27;19950;-46
2023/05/28 10:21:32;;;;;;;;;;;20.40;76.10;;;;;;5129710;27;19958;-44
2023/05/28 10:23:58;;;;;;;;;;;20.50;75.30;;;;;;5132747;27;19908;-46
2023/05/28 10:26:24;;;;;;;;;;;20.50;79.40;;;;;;5129558;27;19915;-45
2023/05/28 10:28:53;;;;;;;;;;;20.50;77.60;;;;;;5131274;27;19926;-46
2023/05/28 10:31:20;;;;;;;;;;;20.60;78.30;;;;;;5123324;27;19911;-46
2023/05/28 10:33:46;;;;;;;;;;;20.70;77.20;;;;;;5127278;27;19918;-44
2023/05/28 10:36:15;;;;;;;;;;;20.70;75.30;;;;;;5125424;28;20011;-44
2023/05/28 10:38:44;;;;;;;;;;;20.80;75.40;;;;;;5119613;28;19915;-45
2023/05/28 10:41:10;;;;;;;;;;;20.80;74.30;;;;;;5129963;28;19911;-45
2023/05/28 10:43:38;;;;;;;;;;;20.80;73.60;;;;;;5132456;28;20366;-46
2023/05/28 10:46:24;;;;;;;;;;;20.90;72.80;;;;;;5131137;28;19998;-45
2023/05/28 10:49:02;;;;;;;;;;;20.90;73.30;;;;;;5110981;28;19920;-46
2023/05/28 10:51:47;;;;;;;;;;;21.00;72.90;;;;;;5132430;28;19915;-48
2023/05/28 10:54:15;;;;;;;;;;;21.10;74.40;;;;;;5132052;28;19907;-53
2023/05/28 10:57:00;;;;;;;;;;;21.10;73.70;;;;;;5130845;28;19916;-46
2023/05/28 10:59:39;;;;;;;;;;;21.20;74.80;;;;;;5130101;28;19919;-46
2023/05/28 11:02:07;;;;;;;;;;;21.20;74.90;;;;;;5132012;28;19953;-46
2023/05/28 11:04:33;;;;;;;;;;;21.20;74.30;;;;;;5132180;28;20010;-46
2023/05/28 11:06:59;;;;;;;;;;;21.30;75.70;;;;;;5131033;28;19965;-45
2023/05/28 11:09:25;;;;;;;;;;;21.30;74.10;;;;;;5129767;28;19923;-45
2023/05/28 11:11:51;;;;;;;;;;;21.30;70.80;;;;;;5130437;28;19956;-46
2023/05/28 11:14:16;;;;;;;;;;;21.40;71.80;;;;;;5131331;28;20366;-50
2023/05/28 11:16:41;;;;;;;;;;;21.50;72.60;;;;;;5130935;28;19918;-46
2023/05/28 11:19:08;;;;;;;;;;;21.50;68.00;;;;;;5131883;28;19920;-44
2023/05/28 11:21:48;;;;;;;;;;;21.60;70.10;;;;;;5132184;28;19916;-45
2023/05/28 11:24:14;;;;;;;;;;;21.60;66.70;;;;;;5131679;28;19964;-46
2023/05/28 11:26:39;;;;;;;;;;;21.60;67.10;;;;;;5130488;28;19911;-45
2023/05/28 11:29:05;;;;;;;;;;;21.60;68.70;;;;;;5130612;28;20374;-45
2023/05/28 11:31:37;;;;;;;;;;;21.70;66.60;;;;;;5111167;28;19967;-44
2023/05/28 11:34:02;;;;;;;;;;;21.70;65.50;;;;;;5112366;28;19958;-44
2023/05/28 11:36:28;;;;;;;;;;;21.70;67.10;;;;;;5122760;27;20433;-45
2023/05/28 11:39:00;;;;;;;;;;;21.80;65.60;;;;;;5131336;27;20199;-44
2023/05/28 11:41:26;;;;;;;;;;;21.80;63.10;;;;;;5129000;27;19964;-45
2023/05/28 11:43:51;;;;;;;;;;;21.90;61.70;;;;;;5131091;27;19911;-45
2023/05/28 11:46:17;;;;;;;;;;;21.90;61.60;;;;;;5133101;27;19912;-50
2023/05/28 11:48:42;;;;;;;;;;;22.00;61.60;;;;;;5122601;27;19923;-49
2023/05/28 11:51:08;;;;;;;;;;;22.10;61.40;;;;;;5121449;27;20276;-46
2023/05/28 11:53:40;;;;;;;;;;;22.10;60.80;;;;;;5132532;27;19915;-46
2023/05/28 11:56:06;;;;;;;;;;;22.10;62.00;;;;;;5133417;27;19911;-46
2023/05/28 11:58:33;;;;;;;;;;;22.10;59.50;;;;;;5134646;27;19911;-45
2023/05/28 12:00:58;;;;;;;;;;;22.10;57.90;;;;;;5134212;27;20255;-49
2023/05/28 12:03:26;;;;;;;;;;;22.20;57.60;;;;;;5135297;27;19914;-46
2023/05/28 12:05:52;;;;;;;;;;;22.20;56.70;;;;;;5134010;27;20314;-52
2023/05/28 12:08:18;;;;;;;;;;;22.20;56.70;;;;;;5131437;27;19930;-46
2023/05/28 12:10:44;;;;;;;;;;;22.30;60.10;;;;;;5135639;27;19915;-45
2023/05/28 12:13:11;;;;;;;;;;;22.40;59.10;;;;;;5132379;27;19911;-46
2023/05/28 12:15:37;;;;;;;;;;;22.40;55.40;;;;;;5133630;27;19947;-46
2023/05/28 12:18:02;;;;;;;;;;;22.50;56.80;;;;;;5129839;27;20003;-48
2023/05/28 12:20:29;;;;;;;;;;;22.60;57.70;;;;;;5134123;27;20354;-46
2023/05/28 12:23:08;;;;;;;;;;;22.60;56.80;;;;;;5135262;27;19907;-48
2023/05/28 12:25:42;;;;;;;;;;;22.70;56.60;;;;;;5134898;27;20245;-46
2023/05/28 12:28:08;;;;;;;;;;;22.90;57.70;;;;;;5131567;27;19915;-47
2023/05/28 12:30:33;;;;;;;;;;;22.90;56.30;;;;;;5133500;27;20376;-46
2023/05/28 12:32:59;;;;;;;;;;;23.10;56.90;;;;;;5134215;27;20396;-45
2023/05/28 12:35:25;;;;;;;;;;;23.20;54.80;;;;;;5134455;27;20250;-48
2023/05/28 12:37:50;;;;;;;;;;;23.50;56.30;;;;;;5133175;27;20423;-51
2023/05/28 12:40:16;;;;;;;;;;;23.60;55.20;;;;;;5133760;27;20374;-45
2023/05/28 12:42:42;;;;;;;;;;;23.70;53.50;;;;;;5132696;27;19912;-47
2023/05/28 12:45:07;;;;;;;;;;;23.80;52.30;;;;;;5132777;27;20331;-49
2023/05/28 12:47:33;;;;;;;;;;;24.10;53.60;;;;;;5132486;27;20333;-48
2023/05/28 12:49:58;;;;;;;;;;;24.40;54.20;;;;;;5134715;27;19919;-50
2023/05/28 12:52:24;;;;;;;;;;;24.60;54.20;;;;;;5129079;27;19912;-46
2023/05/28 12:54:50;;;;;;;;;;;24.80;54.40;;;;;;5124181;27;19915;-46
2023/05/28 12:57:15;;;;;;;;;;;25.10;54.00;;;;;;5129814;27;20323;-48
2023/05/28 12:59:40;;;;;;;;;;;25.20;54.20;;;;;;5124389;27;20329;-48
2023/05/28 13:02:06;;;;;;;;;;;25.40;55.20;;;;;;5122973;27;19912;-47
2023/05/28 13:04:31;;;;;;;;;;;25.50;53.70;;;;;;5134034;27;20146;-49
2023/05/28 13:06:57;;;;;;;;;;;25.60;53.70;;;;;;5132797;27;20419;-48
2023/05/28 13:09:22;;;;;;;;;;;25.80;52.90;;;;;;5133180;27;20370;-47
2023/05/28 13:11:48;;;;;;;;;;;25.90;53.30;;;;;;5131185;27;20014;-46
2023/05/28 13:14:13;;;;;;;;;;;26.00;51.20;;;;;;5133132;27;20392;-56
2023/05/28 13:16:39;;;;;;;;;;;26.20;51.90;;;;;;5131536;27;20286;-47
2023/05/28 13:19:05;;;;;;;;;;;26.30;52.30;;;;;;5129388;27;19918;-48
2023/05/28 13:21:31;;;;;;;;;;;26.50;53.10;;;;;;5132875;27;19970;-48
2023/05/28 13:24:00;;;;;;;;;;;26.70;54.30;;;;;;5133308;27;19998;-47
2023/05/28 13:26:26;;;;;;;;;;;26.80;55.90;;;;;;5133708;27;20362;-45
2023/05/28 13:28:52;;;;;;;;;;;26.90;55.50;;;;;;5131506;27;19964;-46
2023/05/28 13:31:18;;;;;;;;;;;26.90;56.10;;;;;;5130802;27;20281;-46
2023/05/28 13:33:43;;;;;;;;;;;27.00;55.80;;;;;;5133800;27;19947;-45
2023/05/28 13:36:08;;;;;;;;;;;27.10;57.40;;;;;;5127219;27;19927;-45
2023/05/28 13:38:34;;;;;;;;;;;27.20;56.90;;;;;;5133433;27;20297;-47
2023/05/28 13:41:00;;;;;;;;;;;27.40;56.40;;;;;;5133598;27;19908;-46
2023/05/28 13:43:25;;;;;;;;;;;27.40;56.40;;;;;;5130161;27;19961;-45
2023/05/28 13:45:51;;;;;;;;;;;27.40;57.50;;;;;;5130979;27;19920;-46
2023/05/28 13:48:16;;;;;;;;;;;27.50;58.20;;;;;;5131701;27;19912;-47
2023/05/28 13:50:43;;;;;;;;;;;27.60;57.40;;;;;;5132565;27;19968;-49
2023/05/28 13:53:08;;;;;;;;;;;27.70;57.00;;;;;;5132133;27;19911;-46
2023/05/28 13:55:34;;;;;;;;;;;27.70;57.40;;;;;;5130643;27;19918;-49
2023/05/28 13:57:59;;;;;;;;;;;27.80;58.00;;;;;;5128921;27;19926;-46
2023/05/28 14:00:25;;;;;;;;;;;27.80;57.90;;;;;;5131803;27;19911;-48
2023/05/28 14:02:50;;;;;;;;;;;27.80;57.80;;;;;;5126588;27;19918;-46
2023/05/28 14:05:15;;;;;;;;;;;27.80;57.60;;;;;;5123214;27;20309;-44
2023/05/28 14:07:41;;;;;;;;;;;27.80;56.80;;;;;;5130312;27;19930;-46
2023/05/28 14:10:07;;;;;;;;;;;27.70;56.50;;;;;;5122729;27;19927;-47
2023/05/28 14:12:32;;;;;;;;;;;27.70;56.80;;;;;;5129727;27;19976;-45